Upper Lake, California
Current Conditions -  °F | °C
As of 1:10 AM on Friday 24 Oct 2014 (Local Time) from KUKI Reporting Station
Overcast Overcast  
Wind Chill: 57°   Ceiling: 3300
Heat Index: 57°   Visibility: 10mi
Dew Point: 54°   Wind: 0mph
Humidity: 89%   Direction: NA
Pressure: 29.99"   Gusts: NA
Location:  39.16°N, 122.91°W
Report Text: KUKI 240810Z AUTO 00000KT 10SM SCT003 OVC033 14/12 A2999 RMK AO2 T01390122
Loading
Personal Weather Stations






























Interactive Weather Map
Tropical Storm Tracking
New forecast layout! Learn more

10-Day Weather Forecast

Advertisements
Track Severe Weather on mobile